createdAt,value
2016-05-14T00:00:53.655Z,73.25
2016-05-14T00:01:53.533Z,73.16
2016-05-14T00:02:53.739Z,73.54
2016-05-14T00:03:53.804Z,73.73
2016-05-14T00:04:53.808Z,73.54
2016-05-14T00:05:53.856Z,73.73
2016-05-14T00:06:53.922Z,73.25
2016-05-14T00:07:53.955Z,73.16
2016-05-14T00:08:53.974Z,73.16
2016-05-14T00:09:54.023Z,72.58
2016-05-14T00:10:54.073Z,72.2
2016-05-14T00:11:53.966Z,71.25
2016-05-14T00:12:54.141Z,70.87
2016-05-14T00:13:54.175Z,70.64
2016-05-14T00:14:54.240Z,70.45
2016-05-14T00:15:54.259Z,68.92
2016-05-14T00:16:54.292Z,68.54
2016-05-14T00:17:54.218Z,68.16
2016-05-14T00:18:54.376Z,68.26
2016-05-14T00:19:54.410Z,68.44
2016-05-14T00:20:54.459Z,68.63
2016-05-14T00:21:54.540Z,68.44
2016-05-14T00:22:54.528Z,69.02
2016-05-14T00:23:54.577Z,69.11
2016-05-14T00:24:54.611Z,68.92
2016-05-14T00:25:54.660Z,69.11
2016-05-14T00:26:54.694Z,69.11
2016-05-14T00:27:54.728Z,69.31
2016-05-14T00:28:54.794Z,69.11
2016-05-14T00:29:54.811Z,69.11
2016-05-14T00:30:54.845Z,69.11
2016-05-14T00:31:54.739Z,69.78
2016-05-14T00:32:54.945Z,69.4
2016-05-14T00:33:54.978Z,69.78
2016-05-14T00:34:55.012Z,69.59
2016-05-14T00:35:55.063Z,69.31
2016-05-14T00:36:55.096Z,69.4
2016-05-14T00:37:54.974Z,69.31
2016-05-14T00:38:55.008Z,69.65
2016-05-14T00:39:55.041Z,69.65
2016-05-14T00:40:55.247Z,69.65
2016-05-14T00:41:55.297Z,68.98
2016-05-14T00:42:55.315Z,68.7
2016-05-14T00:43:55.365Z,68.32
2016-05-14T00:44:55.429Z,68.51
2016-05-14T00:45:55.433Z,68.03
2016-05-14T00:46:55.499Z,67.93
2016-05-14T00:47:55.532Z,67.46
2016-05-14T00:48:55.410Z,67.27
2016-05-14T00:49:55.600Z,66.88
2016-05-14T00:50:55.665Z,66.31
2016-05-14T00:51:55.683Z,64.78
2016-05-14T00:52:55.717Z,64.97
2016-05-14T00:53:55.767Z,64.21
2016-05-14T00:54:55.645Z,63.92
2016-05-14T00:55:55.851Z,63.64
2016-05-14T00:56:55.884Z,63.26
2016-05-14T00:57:55.917Z,62.68
2016-05-14T00:58:55.967Z,63.26
2016-05-14T00:59:55.845Z,63.45
2016-05-14T01:00:56.051Z,63.16
2016-05-14T01:01:56.101Z,62.78
2016-05-14T01:02:56.181Z,63.64
2016-05-14T01:03:55.997Z,63.26
2016-05-14T01:04:56.218Z,62.59
2016-05-14T01:05:56.236Z,62.78
2016-05-14T01:06:56.271Z,63.35
2016-05-14T01:07:56.320Z,63.42
2016-05-14T01:08:56.355Z,63.83
2016-05-14T01:09:56.388Z,63.35
2016-05-14T01:10:56.438Z,63.64
2016-05-14T01:11:56.471Z,63.83
2016-05-14T01:12:56.537Z,63.32
2016-05-14T01:13:56.540Z,64.4
2016-05-14T01:14:56.588Z,64.12
2016-05-14T01:15:56.655Z,64.28
2016-05-14T01:16:56.657Z,64.09
2016-05-14T01:17:56.706Z,64.31
2016-05-14T01:18:56.741Z,63.89
2016-05-14T01:19:56.837Z,64.37
2016-05-14T01:20:56.823Z,64.02
2016-05-14T01:21:56.857Z,64.02
2016-05-14T01:22:56.907Z,64.5
2016-05-14T01:23:56.942Z,64.37
2016-05-14T01:24:56.819Z,64.28
2016-05-14T01:25:56.868Z,64.37
2016-05-14T01:26:56.903Z,63.99
2016-05-14T01:27:57.108Z,64.65
2016-05-14T01:28:57.142Z,64.59
2016-05-14T01:29:57.192Z,64.59
2016-05-14T01:30:57.226Z,64.56
2016-05-14T01:31:57.135Z,64.37
2016-05-14T01:32:57.137Z,64.37
2016-05-14T01:33:57.687Z,64.37
2016-05-14T01:34:57.378Z,64.75
2016-05-14T01:35:57.411Z,65.04
2016-05-14T01:36:57.444Z,65.13
2016-05-14T01:37:57.494Z,65.04
2016-05-14T01:39:18.372Z,65.7
2016-05-14T01:39:57.578Z,65.61
2016-05-14T01:40:57.612Z,65.52
2016-05-14T01:41:57.506Z,65.45
2016-05-14T01:42:57.695Z,65.8
2016-05-14T01:43:57.729Z,65.7
2016-05-14T01:44:57.763Z,65.99
2016-05-14T01:45:57.813Z,65.89
2016-05-14T01:46:57.847Z,65.7
2016-05-14T01:47:57.740Z,65.7
2016-05-14T01:48:57.930Z,66.28
2016-05-14T01:49:57.854Z,66.18
2016-05-14T01:50:57.999Z,66.18
2016-05-14T01:51:58.048Z,66.28
2016-05-14T01:52:58.113Z,65.8
2016-05-14T01:53:58.115Z,65.99
2016-05-14T01:54:58.165Z,66.09
2016-05-14T01:55:58.199Z,65.61
2016-05-14T01:56:58.248Z,65.99
2016-05-14T01:57:58.284Z,65.33
2016-05-14T01:58:58.317Z,65.13
2016-05-14T01:59:58.367Z,65.13
2016-05-14T02:00:58.400Z,64.94
2016-05-14T02:01:58.434Z,65.42
2016-05-14T02:02:58.468Z,64.94
2016-05-14T02:03:58.877Z,65.13
2016-05-14T02:04:58.552Z,64.94
2016-05-14T02:05:58.600Z,64.28
2016-05-14T02:06:58.635Z,64.18
2016-05-14T02:07:58.700Z,64.09
2016-05-14T02:08:58.703Z,64.56
2016-05-14T02:09:58.753Z,64.28
2016-05-14T02:10:58.786Z,64.65
2016-05-14T02:11:58.836Z,64.56
2016-05-14T02:12:58.869Z,63.6
2016-05-14T02:13:58.747Z,63.8
2016-05-14T02:14:58.938Z,63.8
2016-05-14T02:15:58.988Z,63.13
2016-05-14T02:16:59.022Z,62.94
2016-05-14T02:17:59.055Z,63.42
2016-05-14T02:18:59.308Z,63.23
2016-05-14T02:19:59.138Z,63.23
2016-05-14T02:20:59.173Z,63.23
2016-05-14T02:21:59.238Z,62.84
2016-05-14T02:22:59.271Z,62.75
2016-05-14T02:23:59.290Z,61.89
2016-05-14T02:24:59.184Z,61.8
2016-05-14T02:25:59.374Z,62.27
2016-05-14T02:26:59.423Z,61.99
2016-05-14T02:27:59.441Z,62.27
2016-05-14T02:28:59.335Z,61.7
2016-05-14T02:29:59.573Z,61.7
2016-05-14T02:30:59.575Z,61.8
2016-05-14T02:31:59.609Z,61.8
2016-05-14T02:32:59.643Z,61.41
2016-05-14T02:33:59.723Z,61.32
2016-05-14T02:34:59.726Z,60.55
2016-05-14T02:35:59.760Z,60.94
2016-05-14T02:36:59.809Z,61.13
2016-05-14T02:37:59.859Z,60.75
2016-05-14T02:38:59.940Z,61.51
2016-05-14T02:39:59.990Z,61.41
2016-05-14T02:41:00.039Z,61.89
2016-05-14T02:42:00.057Z,61.51
2016-05-14T02:43:00.029Z,61.89
2016-05-14T02:44:00.063Z,61.89
2016-05-14T02:44:59.956Z,62.37
2016-05-14T02:46:00.005Z,61.8
2016-05-14T02:47:00.196Z,61.99
2016-05-14T02:48:00.246Z,61.89
2016-05-14T02:49:00.279Z,60.75
2016-05-14T02:50:00.313Z,60.55
2016-05-14T02:51:00.346Z,60.84
2016-05-14T02:52:00.428Z,60.27
2016-05-14T02:53:00.416Z,60.08
2016-05-14T02:54:00.464Z,58.94
2016-05-14T02:55:00.514Z,58.75
2016-05-14T02:56:00.595Z,59.6
2016-05-14T02:57:00.582Z,58.75
2016-05-14T02:58:00.632Z,58.84
2016-05-14T02:59:00.665Z,58.94
2016-05-14T03:00:00.700Z,58.17
2016-05-14T03:01:00.733Z,58.46
2016-05-14T03:02:00.783Z,58.55
2016-05-14T03:03:00.848Z,58.36
2016-05-14T03:04:00.695Z,58.17
2016-05-14T03:05:00.884Z,58.07
2016-05-14T03:06:00.934Z,58.55
2016-05-14T03:07:00.969Z,58.65
2016-05-14T03:08:01.017Z,58.65
2016-05-14T03:09:01.052Z,58.26
2016-05-14T03:10:01.133Z,58.46
2016-05-14T03:11:01.119Z,58.46
2016-05-14T03:12:01.169Z,58.94
2016-05-14T03:13:01.219Z,57.89
2016-05-14T03:14:01.238Z,58.17
2016-05-14T03:15:01.286Z,58.17
2016-05-14T03:16:01.321Z,58.65
2016-05-14T03:17:01.371Z,58.36
2016-05-14T03:18:01.404Z,57.98
2016-05-14T03:19:01.610Z,57.79
2016-05-14T03:20:01.362Z,58.17
2016-05-14T03:21:01.537Z,57.79
2016-05-14T03:22:01.555Z,58.36
2016-05-14T03:23:01.605Z,57.89
2016-05-14T03:24:01.624Z,57.7
2016-05-14T03:25:01.673Z,57.5
2016-05-14T03:26:01.707Z,57.5
2016-05-14T03:27:01.756Z,57.98
2016-05-14T03:28:01.775Z,57.79
2016-05-14T03:29:01.824Z,57.5
2016-05-14T03:30:01.858Z,57.79
2016-05-14T03:31:01.909Z,57.7
2016-05-14T03:32:01.973Z,57.89
2016-05-14T03:33:01.976Z,57.6
2016-05-14T03:34:02.025Z,57.7
2016-05-14T03:35:02.059Z,57.7
2016-05-14T03:36:02.093Z,57.89
2016-05-14T03:37:02.127Z,58.07
2016-05-14T03:38:02.208Z,58.46
2016-05-14T03:39:02.055Z,58.26
2016-05-14T03:40:02.245Z,58.46
2016-05-14T03:41:02.294Z,59.03
2016-05-14T03:42:02.328Z,59.03
2016-05-14T03:43:02.362Z,59.41
2016-05-14T03:44:02.411Z,59.79
2016-05-14T03:45:02.289Z,59.99
2016-05-14T03:46:02.526Z,60.08
2016-05-14T03:47:02.357Z,59.99
2016-05-14T03:48:02.547Z,60.27
2016-05-14T03:49:02.690Z,60.55
2016-05-14T03:50:02.646Z,60.65
2016-05-14T03:51:02.665Z,61.32
2016-05-14T03:52:02.715Z,61.22
2016-05-14T03:53:02.748Z,61.6
2016-05-14T03:54:02.798Z,61.51
2016-05-14T03:55:02.832Z,61.6
2016-05-14T03:56:02.865Z,61.51
2016-05-14T03:57:02.916Z,62.37
2016-05-14T03:58:02.948Z,61.99
2016-05-14T03:59:02.983Z,61.89
2016-05-14T04:00:03.033Z,63.04
2016-05-14T04:01:03.051Z,62.27
2016-05-14T04:02:03.101Z,63.13
2016-05-14T04:03:03.134Z,63.04
2016-05-14T04:04:03.200Z,62.75
2016-05-14T04:05:03.218Z,62.65
2016-05-14T04:06:03.252Z,63.42
2016-05-14T04:07:03.301Z,63.6
2016-05-14T04:08:03.336Z,63.42
2016-05-14T04:09:03.370Z,63.8
2016-05-14T04:10:03.420Z,64.28
2016-05-14T04:11:03.484Z,63.99
2016-05-14T04:12:03.347Z,64.56
2016-05-14T04:13:03.521Z,64.56
2016-05-14T04:14:03.570Z,64.47
2016-05-14T04:15:03.635Z,65.13
2016-05-14T04:16:03.654Z,65.13
2016-05-14T04:17:03.688Z,65.61
2016-05-14T04:18:03.738Z,65.42
2016-05-14T04:19:03.787Z,65.99
2016-05-14T04:20:03.811Z,65.89
2016-05-14T04:21:03.920Z,65.8
2016-05-14T04:22:03.996Z,66.09
2016-05-14T04:23:03.901Z,66.63
2016-05-14T04:24:04.134Z,66.53
2016-05-14T04:25:04.238Z,66.82
2016-05-14T04:26:04.257Z,66.72
2016-05-14T04:27:04.321Z,66.91
2016-05-14T04:28:04.371Z,67
2016-05-14T04:29:04.468Z,67.68
2016-05-14T04:30:04.468Z,67.58
2016-05-14T04:31:04.539Z,67.68
2016-05-14T04:32:04.563Z,67.52
2016-05-14T04:33:04.619Z,67.42
2016-05-14T04:34:04.658Z,67.52
2016-05-14T04:35:04.697Z,67.33
2016-05-14T04:36:04.749Z,67.42
2016-05-14T04:37:04.786Z,67.42
2016-05-14T04:38:04.821Z,67.33
2016-05-14T04:39:04.732Z,67.33
2016-05-14T04:40:04.924Z,67.42
2016-05-14T04:41:04.959Z,67.71
2016-05-14T04:42:04.993Z,66.85
2016-05-14T04:43:05.075Z,66.75
2016-05-14T04:44:05.078Z,66.85
2016-05-14T04:45:05.113Z,66.85
2016-05-14T04:46:05.147Z,66.94
2016-05-14T04:47:05.213Z,66.75
2016-05-14T04:48:05.231Z,66.85
2016-05-14T04:49:05.500Z,67.23
2016-05-14T04:50:05.175Z,67.42
2016-05-14T04:51:05.177Z,67.23
2016-05-14T04:52:05.399Z,67.42
2016-05-14T04:53:05.417Z,67.33
2016-05-14T04:54:05.498Z,67.33
2016-05-14T04:55:05.501Z,67.61
2016-05-14T04:56:05.535Z,67.33
2016-05-14T04:57:05.585Z,67.33
2016-05-14T04:58:05.634Z,67.9
2016-05-14T04:59:05.652Z,67.99
2016-05-14T05:00:05.686Z,68.28
2016-05-14T05:01:05.736Z,68.28
2016-05-14T05:02:05.770Z,68.09
2016-05-14T05:03:05.819Z,68.28
2016-05-14T05:04:06.291Z,67.71
2016-05-14T05:05:05.731Z,68.28
2016-05-14T05:06:05.921Z,68.09
2016-05-14T05:07:05.956Z,67.9
2016-05-14T05:08:06.020Z,68.09
2016-05-14T05:09:06.039Z,68.12
2016-05-14T05:10:06.072Z,67.93
2016-05-14T05:11:06.122Z,68.03
2016-05-14T05:12:06.234Z,67.55
2016-05-14T05:13:06.206Z,68.12
2016-05-14T05:14:06.256Z,67.83
2016-05-14T05:15:06.320Z,67.83
2016-05-14T05:16:06.339Z,67.55
2016-05-14T05:17:06.200Z,67.65
2016-05-14T05:18:06.407Z,67.17
2016-05-14T05:19:06.330Z,67.55
2016-05-14T05:20:06.475Z,67.36
2016-05-14T05:21:06.524Z,67.27
2016-05-14T05:22:06.558Z,67.74
2016-05-14T05:23:06.624Z,67.55
2016-05-14T05:24:06.641Z,67.93
2016-05-14T05:25:06.660Z,68.06
2016-05-14T05:26:06.553Z,68.16
2016-05-14T05:27:06.759Z,67.21
2016-05-14T05:28:06.793Z,67.3
2016-05-14T05:29:06.843Z,67.49
2016-05-14T05:30:06.751Z,67.77
2016-05-14T05:31:06.910Z,67.77
2016-05-14T05:32:06.976Z,67.11
2016-05-14T05:33:07.025Z,67.77
2016-05-14T05:34:06.871Z,67.3
2016-05-14T05:35:07.062Z,67.68
2016-05-14T05:36:07.111Z,67.97
2016-05-14T05:37:07.176Z,67.77
2016-05-14T05:38:07.195Z,67.97
2016-05-14T05:39:07.072Z,67.77
2016-05-14T05:40:07.278Z,67.97
2016-05-14T05:41:07.311Z,67.58
2016-05-14T05:42:07.346Z,67.58
2016-05-14T05:43:07.381Z,67.21
2016-05-14T05:44:07.477Z,67.68
2016-05-14T05:45:07.605Z,68
2016-05-14T05:46:07.513Z,68.35
2016-05-14T05:47:07.547Z,67.91
2016-05-14T05:48:07.581Z,67.52
2016-05-14T05:49:07.786Z,67.33
2016-05-14T05:50:07.664Z,67.14
2016-05-14T05:51:07.713Z,67.33
2016-05-14T05:52:07.592Z,66.76
2016-05-14T05:53:07.798Z,67.05
2016-05-14T05:54:07.832Z,66.38
2016-05-14T05:55:07.866Z,66.09
2016-05-14T05:56:07.915Z,66.76
2016-05-14T05:57:07.793Z,66.19
2016-05-14T05:58:07.983Z,66
2016-05-14T05:59:08.048Z,66
2016-05-14T06:00:08.066Z,65.52
2016-05-14T06:01:08.100Z,65.71
2016-05-14T06:02:08.151Z,66
2016-05-14T06:03:08.028Z,66
2016-05-14T06:04:08.077Z,65.61
2016-05-14T06:05:08.284Z,64.56
2016-05-14T06:06:08.301Z,64.94
2016-05-14T06:07:08.382Z,65.23
2016-05-14T06:08:08.245Z,64.65
2016-05-14T06:09:08.419Z,64.37
2016-05-14T06:10:08.484Z,64.28
2016-05-14T06:11:08.533Z,64.15
2016-05-14T06:12:08.552Z,63.76
2016-05-14T06:13:08.601Z,63.96
2016-05-14T06:14:08.620Z,64.15
2016-05-14T06:15:08.686Z,64.25
2016-05-14T06:16:08.703Z,64.43
2016-05-14T06:17:08.737Z,65.17
2016-05-14T06:18:08.802Z,65.26
2016-05-14T06:19:09.258Z,65.55
2016-05-14T06:20:08.854Z,66.02
2016-05-14T06:21:08.904Z,65.83
2016-05-14T06:22:08.938Z,65.64
2016-05-14T06:23:08.988Z,65.01
2016-05-14T06:24:08.866Z,64.69
2016-05-14T06:25:09.102Z,64.81
2016-05-14T06:26:09.105Z,65.2
2016-05-14T06:27:09.138Z,64.34
2016-05-14T06:28:09.204Z,63.96
2016-05-14T06:29:09.238Z,64.43
2016-05-14T06:30:09.256Z,64.25
2016-05-14T06:31:09.290Z,63.7
2016-05-14T06:32:09.340Z,63.89
2016-05-14T06:33:09.374Z,63.8
2016-05-14T06:34:09.580Z,62.55
2016-05-14T06:35:09.442Z,61.98
2016-05-14T06:36:09.538Z,62.18
2016-05-14T06:37:09.525Z,61.79
2016-05-14T06:38:09.575Z,61.89
2016-05-14T06:39:09.609Z,61.6
2016-05-14T06:40:09.689Z,61.6
2016-05-14T06:41:09.692Z,61.89
2016-05-14T06:42:09.585Z,62.18
2016-05-14T06:43:09.603Z,62.37
2016-05-14T06:44:09.810Z,61.79
2016-05-14T06:45:09.844Z,61.69
2016-05-14T06:46:09.894Z,61.89
2016-05-14T06:47:09.771Z,61.41
2016-05-14T06:48:09.977Z,61.22
2016-05-14T06:49:10.152Z,60.84
2016-05-14T06:50:10.044Z,60.84
2016-05-14T06:51:10.110Z,60.84
2016-05-14T06:52:10.127Z,60.84
2016-05-14T06:53:10.178Z,60.64
2016-05-14T06:54:10.197Z,59.98
2016-05-14T06:55:10.246Z,59.88
2016-05-14T06:56:10.296Z,60.27
2016-05-14T06:57:10.360Z,60.49
2016-05-14T06:58:10.410Z,59.91
2016-05-14T06:59:10.413Z,59.91
2016-05-14T07:00:10.446Z,60.2
2016-05-14T07:01:10.496Z,60.1
2016-05-14T07:02:10.545Z,59.63
2016-05-14T07:03:10.579Z,58.86
2016-05-14T07:04:10.473Z,58.58
2016-05-14T07:05:10.662Z,58.48
2016-05-14T07:06:10.698Z,58.95
2016-05-14T07:07:10.731Z,59.15
2016-05-14T07:08:10.796Z,59.53
2016-05-14T07:09:10.815Z,59.53
2016-05-14T07:10:10.864Z,60.01
2016-05-14T07:11:10.742Z,60.2
2016-05-14T07:12:10.791Z,59.91
2016-05-14T07:13:10.825Z,60.3
2016-05-14T07:14:11.015Z,59.44
2016-05-14T07:15:11.175Z,58.76
2016-05-14T07:16:11.131Z,58.58
2016-05-14T07:17:11.148Z,59.15
2016-05-14T07:18:11.370Z,58.86
2016-05-14T07:19:11.217Z,58.76
2016-05-14T07:20:11.266Z,59.24
2016-05-14T07:21:11.300Z,58.48
2016-05-14T07:22:11.349Z,58.29
2016-05-14T07:23:11.368Z,58.58
2016-05-14T07:24:11.402Z,58.58
2016-05-14T07:25:11.311Z,59.05
2016-05-14T07:26:11.502Z,59.05
2016-05-14T07:27:11.565Z,58.48
2016-05-14T07:28:11.569Z,57.81
2016-05-14T07:29:11.619Z,57.81
2016-05-14T07:30:11.668Z,58.48
2016-05-14T07:31:11.702Z,58.19
2016-05-14T07:32:11.735Z,57.81
2016-05-14T07:33:11.785Z,57.46
2016-05-14T07:34:12.148Z,58.22
2016-05-14T07:35:11.853Z,57.93
2016-05-14T07:36:11.903Z,57.39
2016-05-14T07:37:11.937Z,57.2
2016-05-14T07:38:12.018Z,57.1
2016-05-14T07:39:11.880Z,57.36
2016-05-14T07:40:12.070Z,57.65
2016-05-14T07:41:11.948Z,56.69
2016-05-14T07:42:12.137Z,56.79
2016-05-14T07:43:12.186Z,56.79
2016-05-14T07:44:12.237Z,56.98
2016-05-14T07:45:12.302Z,57.26
2016-05-14T07:46:12.305Z,56.98
2016-05-14T07:47:12.339Z,57.07
2016-05-14T07:48:12.420Z,57.46
2016-05-14T07:49:13.251Z,56.88
2016-05-14T07:50:12.316Z,56.98
2016-05-14T07:51:12.522Z,56.6
2016-05-14T07:52:12.555Z,56.79
2016-05-14T07:53:12.589Z,56.88
2016-05-14T07:54:12.639Z,56.6
2016-05-14T07:55:12.516Z,57.07
2016-05-14T07:56:12.753Z,56.95
2016-05-14T07:57:12.616Z,57.24
2016-05-14T07:58:12.805Z,56.18
2016-05-14T07:59:12.871Z,56.4
2016-05-14T08:00:12.889Z,56.79
2016-05-14T08:01:12.924Z,56.31
2016-05-14T08:02:12.957Z,56.31
2016-05-14T08:03:13.007Z,56.12
2016-05-14T08:04:13.213Z,56.79
2016-05-14T08:05:13.090Z,56.88
2016-05-14T08:06:13.109Z,56.4
2016-05-14T08:07:13.157Z,55.83
2016-05-14T08:08:13.207Z,56.24
2016-05-14T08:09:13.242Z,55.1
2016-05-14T08:10:13.323Z,53.75
2016-05-14T08:11:13.326Z,53.75
2016-05-14T08:12:13.375Z,54.04
2016-05-14T08:13:13.439Z,53.94
2016-05-14T08:14:13.458Z,53.75
2016-05-14T08:15:13.508Z,53.37
2016-05-14T08:16:13.526Z,52.7
2016-05-14T08:17:13.434Z,53.3
2016-05-14T08:18:13.641Z,51.97
2016-05-14T08:19:14.003Z,50.91
2016-05-14T08:20:13.739Z,51.1
2016-05-14T08:21:13.758Z,51.36
2016-05-14T08:22:13.792Z,51.77
2016-05-14T08:23:13.811Z,51.77
2016-05-14T08:24:13.891Z,52.42
2016-05-14T08:25:13.894Z,52.25
2016-05-14T08:26:13.803Z,51.39
2016-05-14T08:27:13.993Z,51.87
2016-05-14T08:28:14.058Z,51.48
2016-05-14T08:29:14.076Z,51.48
2016-05-14T08:30:14.110Z,50.62
2016-05-14T08:31:14.144Z,50.81
2016-05-14T08:32:14.054Z,50.34
2016-05-14T08:33:14.775Z,49.57
2016-05-14T08:34:14.263Z,49
2016-05-14T08:35:14.327Z,49.38
2016-05-14T08:36:14.361Z,49.38
2016-05-14T08:37:14.426Z,49
2016-05-14T08:38:14.445Z,49.19
2016-05-14T08:39:14.494Z,49.19
2016-05-14T08:40:14.512Z,49.66
2016-05-14T08:41:14.562Z,50.05
2016-05-14T08:42:14.659Z,50.62
2016-05-14T08:43:14.661Z,51.1
2016-05-14T08:44:14.695Z,51.58
2016-05-14T08:45:14.760Z,51.32
2016-05-14T08:46:14.607Z,51.42
2016-05-14T08:47:14.812Z,51.13
2016-05-14T08:48:15.409Z,50.48
2016-05-14T08:49:14.896Z,50.77
2016-05-14T08:50:14.945Z,49.24
2016-05-14T08:51:14.995Z,48.49
2016-05-14T08:52:15.013Z,45.52
2016-05-14T08:53:15.078Z,44.56
2016-05-14T08:54:15.097Z,44.64
2016-05-14T08:55:15.147Z,45.21
2016-05-14T08:56:15.211Z,45.69
2016-05-14T08:57:15.246Z,44.73
2016-05-14T08:58:15.280Z,44.73
2016-05-14T08:59:15.314Z,44.06
2016-05-14T09:00:15.379Z,44.83
2016-05-14T09:01:15.413Z,45.86
2016-05-14T09:02:15.290Z,45.98
2016-05-14T09:03:16.012Z,45.89
2016-05-14T09:04:15.530Z,46.26
2016-05-14T09:05:15.563Z,44.64
2016-05-14T09:06:15.645Z,45.21
2016-05-14T09:07:15.662Z,45.21
2016-05-14T09:08:15.697Z,45.12
2016-05-14T09:09:15.575Z,45.69
2016-05-14T09:10:15.781Z,45.59
2016-05-14T09:11:15.815Z,45.59
2016-05-14T09:12:15.864Z,45.31
2016-05-14T09:13:15.929Z,45.89
2016-05-14T09:14:15.948Z,45.59
2016-05-14T09:15:15.981Z,44.06
2016-05-14T09:16:16.031Z,44.83
2016-05-14T09:17:15.939Z,44.73
2016-05-14T09:18:15.973Z,45.12
2016-05-14T09:19:16.446Z,44.83
2016-05-14T09:20:16.213Z,45.4
2016-05-14T09:21:16.248Z,45.76
2016-05-14T09:22:16.281Z,45.57
2016-05-14T09:23:16.331Z,45.31
2016-05-14T09:24:16.365Z,45.69
2016-05-14T09:25:16.258Z,45.69
2016-05-14T09:26:16.464Z,45.21
2016-05-14T09:27:16.497Z,45.86
2016-05-14T09:28:16.594Z,45.98
2016-05-14T09:29:16.566Z,45.79
2016-05-14T09:30:16.615Z,46.36
2016-05-14T09:31:16.666Z,45.69
2016-05-14T09:32:16.699Z,43.97
2016-05-14T09:33:17.061Z,44.73
2016-05-14T09:34:16.908Z,44.09
2016-05-14T09:35:16.832Z,43.32
2016-05-14T09:36:16.882Z,43.41
2016-05-14T09:37:16.915Z,43.41
2016-05-14T09:38:16.981Z,43.32
2016-05-14T09:39:17.046Z,43.23
2016-05-14T09:40:17.032Z,43.51
2016-05-14T09:41:17.082Z,43.41
2016-05-14T09:42:16.975Z,43.7
2016-05-14T09:43:17.150Z,43.53
2016-05-14T09:44:17.216Z,42.57
2016-05-14T09:45:17.109Z,42.29
2016-05-14T09:46:17.299Z,41.71
2016-05-14T09:47:17.333Z,42.47
2016-05-14T09:48:17.648Z,42.57
2016-05-14T09:49:17.448Z,41.71
2016-05-14T09:50:17.481Z,38.54
2016-05-14T09:51:17.500Z,39.1
2016-05-14T09:52:17.550Z,38.72
2016-05-14T09:53:17.739Z,38.91
2016-05-14T09:54:17.633Z,38.34
2016-05-14T09:55:17.683Z,37.95
2016-05-14T09:56:17.764Z,37.66
2016-05-14T09:57:17.766Z,38.34
2016-05-14T09:58:17.816Z,38.72
2016-05-14T09:59:17.850Z,39.2
2016-05-14T10:00:17.899Z,39.03
2016-05-14T10:01:17.933Z,39.41
2016-05-14T10:02:17.967Z,38.54
2016-05-14T10:03:18.094Z,39.22
2016-05-14T10:04:18.113Z,39.22
2016-05-14T10:05:17.944Z,39.29
2016-05-14T10:06:18.134Z,40.44
2016-05-14T10:07:18.184Z,41.5
2016-05-14T10:08:18.218Z,41.88
2016-05-14T10:09:18.283Z,41.97
2016-05-14T10:10:18.161Z,41.71
2016-05-14T10:11:18.350Z,41.42
2016-05-14T10:12:18.385Z,41.52
2016-05-14T10:13:18.435Z,40.58
2016-05-14T10:14:18.468Z,39.33
2016-05-14T10:15:18.549Z,38.56
2016-05-14T10:16:18.411Z,37.89
2016-05-14T10:17:18.617Z,37.51
2016-05-14T10:18:18.901Z,38.18
2016-05-14T10:19:18.700Z,38.29
2016-05-14T10:20:18.750Z,37.72
2016-05-14T10:21:18.814Z,35.72
2016-05-14T10:22:18.864Z,34.09
2016-05-14T10:23:18.712Z,34.67
2016-05-14T10:24:18.917Z,35.45
2016-05-14T10:25:18.967Z,35.83
2016-05-14T10:26:19.000Z,35.38
2016-05-14T10:27:19.050Z,34.89
2016-05-14T10:28:19.116Z,34.8
2016-05-14T10:29:19.196Z,34.41
2016-05-14T10:30:19.183Z,34.99
2016-05-14T10:31:19.280Z,35.74
2016-05-14T10:32:19.282Z,35.93
2016-05-14T10:33:19.191Z,36.13
2016-05-14T10:34:19.600Z,35.91
2016-05-14T10:35:19.430Z,36.88
2016-05-14T10:36:19.465Z,37.16
2016-05-14T10:37:19.499Z,36.49
2016-05-14T10:38:19.549Z,36.9
2016-05-14T10:39:19.583Z,36.9
2016-05-14T10:40:19.476Z,37.1
2016-05-14T10:41:19.697Z,36.53
2016-05-14T10:42:19.732Z,34.92
2016-05-14T10:43:19.765Z,32.06
2016-05-14T10:44:19.690Z,32.73
2016-05-14T10:45:19.848Z,32.25
2016-05-14T10:46:19.914Z,32.15
2016-05-14T10:47:19.995Z,31.11
2016-05-14T10:48:20.012Z,29.9
2016-05-14T10:49:19.890Z,28.02
2016-05-14T10:50:20.095Z,26.31
2016-05-14T10:51:19.973Z,24.9
2016-05-14T10:52:20.196Z,23.66
2016-05-14T10:53:20.229Z,22.34
2016-05-14T10:54:20.325Z,21.48
2016-05-14T10:55:20.328Z,21.39
2016-05-14T10:56:20.378Z,19.91
2016-05-14T10:57:20.459Z,18.84
2016-05-14T10:58:20.336Z,18.56
2016-05-14T10:59:20.542Z,17.78
2016-05-14T11:00:20.592Z,17.21
2016-05-14T11:01:20.658Z,15.37
2016-05-14T11:02:20.566Z,15.09
2016-05-14T11:03:20.725Z,15.29
2016-05-14T11:04:20.790Z,15.19
2016-05-14T11:05:20.871Z,14.81
2016-05-14T11:06:20.889Z,15.29
2016-05-14T11:07:20.938Z,14.62
2016-05-14T11:08:21.020Z,15.11
2016-05-14T11:09:21.037Z,15.21
2016-05-14T11:10:20.931Z,15.2
2016-05-14T11:11:21.138Z,15.11
2016-05-14T11:12:21.234Z,15.48
2016-05-14T11:13:21.268Z,15.67
2016-05-14T11:14:21.301Z,16.06
2016-05-14T11:15:21.382Z,15.87
2016-05-14T11:16:21.276Z,15.4
2016-05-14T11:17:21.482Z,13.45
2016-05-14T11:18:21.984Z,13.74
2016-05-14T11:19:21.424Z,14.59
2016-05-14T11:20:21.631Z,16.31
2016-05-14T11:21:21.664Z,18.13
2016-05-14T11:22:21.761Z,19.07
2016-05-14T11:23:21.763Z,19.93
2016-05-14T11:24:21.828Z,20.31
2016-05-14T11:25:21.878Z,20.12
2016-05-14T11:26:21.928Z,19.54
2016-05-14T11:27:21.978Z,19.74
2016-05-14T11:28:22.011Z,20.24
2016-05-14T11:29:21.950Z,19.48
2016-05-14T11:30:22.125Z,17.36
2016-05-14T11:31:22.175Z,17.57
2016-05-14T11:32:22.241Z,18.05
2016-05-14T11:33:22.930Z,17.08
2016-05-14T11:34:22.355Z,16.99
2016-05-14T11:35:22.217Z,16.59
2016-05-14T11:36:22.424Z,16.69
2016-05-14T11:37:22.488Z,16.69
2016-05-14T11:38:22.538Z,16.98
2016-05-14T11:39:22.588Z,16.79
2016-05-14T11:40:22.496Z,17.08
2016-05-14T11:41:22.530Z,17.08
2016-05-14T11:42:22.735Z,17.47
2016-05-14T11:43:22.801Z,17.36
2016-05-14T11:44:22.679Z,17.85
2016-05-14T11:45:22.901Z,17.76
2016-05-14T11:46:22.950Z,17.36
2016-05-14T11:47:22.984Z,17.64
2016-05-14T11:48:23.815Z,18.51
2016-05-14T11:49:23.099Z,18.31
2016-05-14T11:50:23.132Z,17.63
2016-05-14T11:51:23.198Z,18.4
2016-05-14T11:52:23.248Z,18.39
2016-05-14T11:53:23.298Z,19.15
2016-05-14T11:54:23.347Z,18.19
2016-05-14T11:55:23.396Z,18.77
2016-05-14T11:56:23.445Z,17.73
2016-05-14T11:57:23.495Z,17.35
2016-05-14T11:58:23.404Z,16.99
2016-05-14T11:59:23.594Z,16.43
2016-05-14T12:00:23.644Z,15.58
2016-05-14T12:01:23.724Z,14.12
2016-05-14T12:02:23.758Z,12.96
2016-05-14T12:03:23.871Z,11.6
2016-05-14T12:04:23.717Z,10.43
2016-05-14T12:05:23.782Z,10.92
2016-05-14T12:06:23.972Z,10.82
2016-05-14T12:07:24.053Z,11.3
2016-05-14T12:08:24.087Z,12.27
2016-05-14T12:09:24.138Z,12.95
2016-05-14T12:10:24.170Z,13.52
2016-05-14T12:11:24.267Z,14
2016-05-14T12:12:24.285Z,13.89
2016-05-14T12:13:24.335Z,14.85
2016-05-14T12:14:24.369Z,15.52
2016-05-14T12:15:24.450Z,16.48
2016-05-14T12:16:24.485Z,16.56
2016-05-14T12:17:24.534Z,17.24
2016-05-14T12:18:25.021Z,17.81
2016-05-14T12:19:24.617Z,18.48
2016-05-14T12:20:24.698Z,19.15
2016-05-14T12:21:24.716Z,19.04
2016-05-14T12:22:24.797Z,19.81
2016-05-14T12:23:24.815Z,20
2016-05-14T12:24:24.865Z,19.32
2016-05-14T12:25:24.961Z,19.22
2016-05-14T12:26:24.964Z,19.04
2016-05-14T12:27:24.998Z,19.13
2016-05-14T12:28:25.063Z,18.85
2016-05-14T12:29:25.128Z,19.13
2016-05-14T12:30:24.990Z,19.7
2016-05-14T12:31:25.039Z,19.89
2016-05-14T12:32:25.277Z,20.75
2016-05-14T12:33:25.310Z,20.75
2016-05-14T12:34:25.516Z,20.74
2016-05-14T12:35:25.238Z,22.08
2016-05-14T12:36:25.460Z,22.17
2016-05-14T12:37:25.477Z,22.64
2016-05-14T12:38:25.527Z,23.13
2016-05-14T12:39:25.593Z,23.69
2016-05-14T12:40:25.611Z,24.08
2016-05-14T12:41:25.661Z,24.85
2016-05-14T12:42:25.710Z,24.95
2016-05-14T12:43:25.744Z,25.12
2016-05-14T12:44:25.638Z,25.32
2016-05-14T12:45:25.827Z,25.88
2016-05-14T12:46:25.893Z,25.98
2016-05-14T12:47:25.926Z,25.98
2016-05-14T12:48:25.992Z,26.45
2016-05-14T12:49:25.854Z,26.06
2016-05-14T12:50:26.090Z,26.54
2016-05-14T12:51:26.110Z,26.64
2016-05-14T12:52:26.143Z,26.83
2016-05-14T12:53:26.239Z,27.22
2016-05-14T12:54:26.258Z,26.06
2016-05-14T12:55:26.276Z,26.54
2016-05-14T12:56:26.326Z,27.01
2016-05-14T12:57:26.734Z,27.39